createdAt,value
2023-07-03T00:02:35.134Z,981.4
2023-07-03T00:06:38.424Z,981.5
2023-07-03T00:08:39.479Z,981.4
2023-07-03T00:12:42.288Z,981.4
2023-07-03T00:16:45.039Z,981.4
2023-07-03T00:18:46.607Z,981.5
2023-07-03T00:22:49.673Z,981.5
2023-07-03T00:24:50.857Z,981.5
2023-07-03T00:28:53.050Z,981.4
2023-07-03T00:32:56.284Z,981.4
2023-07-03T00:34:58.078Z,981.4
2023-07-03T00:39:01.086Z,981.5
2023-07-03T00:41:02.216Z,981.5
2023-07-03T00:45:05.250Z,981.5
2023-07-03T00:49:07.829Z,981.4
2023-07-03T00:51:09.310Z,981.5
2023-07-03T00:55:11.697Z,981.5
2023-07-03T00:59:14.926Z,981.4
2023-07-03T01:01:25.595Z,981.5
2023-07-03T01:05:20.012Z,981.5
2023-07-03T01:07:21.240Z,981.5
2023-07-03T01:09:22.950Z,981.5
2023-07-03T01:11:23.894Z,981.4
2023-07-03T01:15:26.460Z,981.4
2023-07-03T01:17:27.763Z,981.4
2023-07-03T01:19:28.896Z,981.4
2023-07-03T01:21:30.066Z,981.4
2023-07-03T01:23:31.846Z,981.3
2023-07-03T01:27:34.635Z,981.4
2023-07-03T01:29:35.986Z,981.4
2023-07-03T01:31:37.385Z,981.3
2023-07-03T01:33:38.913Z,981.3
2023-07-03T01:37:41.520Z,981.3
2023-07-03T01:39:43.282Z,981.2
2023-07-03T01:43:46.136Z,981.3
2023-07-03T01:47:48.542Z,981.2
2023-07-03T01:49:50.189Z,981.2
2023-07-03T01:53:53.727Z,981.2
2023-07-03T01:57:55.983Z,981.2
2023-07-03T01:59:56.929Z,981.1
2023-07-03T02:03:59.202Z,981.1
2023-07-03T02:06:00.746Z,981.1
2023-07-03T02:10:03.568Z,981.1
2023-07-03T02:14:06.957Z,981.1
2023-07-03T02:16:08.761Z,981
2023-07-03T02:20:11.843Z,981
2023-07-03T02:22:12.788Z,981.1
2023-07-03T02:24:14.462Z,981
2023-07-03T02:30:18.429Z,981.2
2023-07-03T02:32:19.336Z,981.2
2023-07-03T02:36:21.935Z,981.2
2023-07-03T02:40:24.670Z,981.1
2023-07-03T02:42:34.532Z,981.1
2023-07-03T02:46:29.277Z,981.1
2023-07-03T02:48:30.879Z,981.2
2023-07-03T02:52:33.404Z,981.1
2023-07-03T02:56:35.910Z,981.1
2023-07-03T02:58:37.399Z,981.1
2023-07-03T03:02:39.986Z,981.1
2023-07-03T03:04:41.817Z,981.1
2023-07-03T03:08:44.522Z,981
2023-07-03T03:10:45.630Z,981.1
2023-07-03T03:14:48.175Z,981.1
2023-07-03T03:18:50.064Z,981.2
2023-07-03T03:24:54.668Z,981.1
2023-07-03T03:26:56.114Z,981.1
2023-07-03T03:28:57.866Z,981.1
2023-07-03T03:35:00.814Z,981.1
2023-07-03T03:39:03.310Z,981.1
2023-07-03T03:41:05.153Z,981.1
2023-07-03T03:45:07.749Z,981.1
2023-07-03T03:47:09.505Z,981.2
2023-07-03T03:51:12.978Z,981.2
2023-07-03T03:55:25.735Z,981.2
2023-07-03T03:57:16.853Z,981.2
2023-07-03T04:02:03.890Z,981.1
2023-07-03T04:06:06.113Z,981.2
2023-07-03T04:08:07.869Z,981.2
2023-07-03T04:12:10.223Z,981.2
2023-07-03T04:16:13.083Z,981.2
2023-07-03T04:18:15.081Z,981.1
2023-07-03T04:22:18.835Z,981.2
2023-07-03T04:24:20.102Z,981.2
2023-07-03T04:28:22.628Z,981.2
2023-07-03T04:32:25.518Z,981.2
2023-07-03T04:34:26.912Z,981.3
2023-07-03T04:38:28.673Z,981.2
2023-07-03T04:40:30.750Z,981.3
2023-07-03T04:42:31.652Z,981.3
2023-07-03T04:44:32.489Z,981.3
2023-07-03T04:48:36.107Z,981.3
2023-07-03T04:50:35.826Z,981.4
2023-07-03T04:52:37.717Z,981.4
2023-07-03T04:54:38.279Z,981.4
2023-07-03T04:56:43.475Z,981.4
2023-07-03T05:00:43.091Z,981.5
2023-07-03T05:02:44.132Z,981.4
2023-07-03T05:04:45.391Z,981.5
2023-07-03T05:10:49.894Z,981.5
2023-07-03T05:12:51.345Z,981.7
2023-07-03T05:16:54.228Z,981.6
2023-07-03T05:20:56.680Z,981.6
2023-07-03T05:22:57.572Z,981.6
2023-07-03T05:27:00.112Z,981.6
2023-07-03T05:31:02.556Z,981.6
2023-07-03T05:33:03.520Z,981.7
2023-07-03T05:37:05.734Z,981.7
2023-07-03T05:39:06.792Z,981.6
2023-07-03T05:43:09.139Z,981.7
2023-07-03T05:47:12.351Z,981.7
2023-07-03T05:49:13.233Z,981.7
2023-07-03T05:53:16.391Z,981.7
2023-07-03T05:55:17.658Z,981.7
2023-07-03T05:57:18.896Z,981.6
2023-07-03T06:03:23.654Z,981.7
2023-07-03T06:05:24.386Z,981.7
2023-07-03T06:09:27.173Z,981.7
2023-07-03T06:11:28.007Z,981.7
2023-07-03T06:15:30.743Z,981.7
2023-07-03T06:19:33.047Z,981.7
2023-07-03T06:21:35.040Z,981.8
2023-07-03T06:25:37.901Z,981.8
2023-07-03T06:29:40.442Z,981.8
2023-07-03T06:31:41.889Z,981.8
2023-07-03T06:35:44.338Z,981.7
2023-07-03T06:37:45.963Z,981.7
2023-07-03T06:41:48.825Z,981.8
2023-07-03T06:47:54.641Z,981.9
2023-07-03T06:51:58.499Z,981.8
2023-07-03T06:53:59.690Z,981.8
2023-07-03T06:58:02.262Z,981.9
2023-07-03T07:00:03.170Z,982
2023-07-03T07:04:05.206Z,982
2023-07-03T07:08:07.950Z,982
2023-07-03T07:12:11.212Z,982.1
2023-07-03T07:14:12.672Z,982
2023-07-03T07:18:15.697Z,982.1
2023-07-03T07:20:17.199Z,982.1
2023-07-03T07:24:19.344Z,982.1
2023-07-03T07:28:21.632Z,982.2
2023-07-03T07:30:23.820Z,982.2
2023-07-03T07:34:26.084Z,982.2
2023-07-03T07:36:27.067Z,982.2
2023-07-03T07:40:28.970Z,982.2
2023-07-03T07:44:31.109Z,982.2
2023-07-03T07:46:32.304Z,982.2
2023-07-03T07:50:35.541Z,982.2
2023-07-03T07:56:39.173Z,982.3
2023-07-03T08:00:41.850Z,982.4
2023-07-03T08:02:42.847Z,982.4
2023-07-03T08:04:44.083Z,982.4
2023-07-03T08:08:47.154Z,982.3
2023-07-03T08:10:48.739Z,982.4
2023-07-03T08:12:50.252Z,982.5
2023-07-03T08:14:51.794Z,982.3
2023-07-03T08:18:54.381Z,982.4
2023-07-03T08:20:55.922Z,982.5
2023-07-03T08:22:57.125Z,982.5
2023-07-03T08:27:00.827Z,982.6
2023-07-03T08:29:03.309Z,982.6
2023-07-03T08:31:04.610Z,982.5
2023-07-03T08:37:08.875Z,982.5
2023-07-03T08:39:10.007Z,982.6
2023-07-03T08:41:11.369Z,982.6
2023-07-03T08:43:12.440Z,982.6
2023-07-03T08:45:13.587Z,982.6
2023-07-03T08:49:16.564Z,982.5
2023-07-03T08:51:18.257Z,982.6
2023-07-03T08:55:20.607Z,982.6
2023-07-03T08:59:24.679Z,982.6
2023-07-03T09:01:26.471Z,982.5
2023-07-03T09:05:28.876Z,982.5
2023-07-03T09:09:31.346Z,982.5
2023-07-03T09:11:33.060Z,982.4
2023-07-03T09:15:35.071Z,982.4
2023-07-03T09:17:36.094Z,982.5
2023-07-03T09:21:39.364Z,982.7
2023-07-03T09:23:40.184Z,982.5
2023-07-03T09:25:41.663Z,982.4
2023-07-03T09:31:44.896Z,982.5
2023-07-03T09:35:47.148Z,982.4
2023-07-03T09:37:48.847Z,982.4
2023-07-03T09:41:50.898Z,982.6
2023-07-03T09:43:52.213Z,982.6
2023-07-03T09:45:53.537Z,982.5
2023-07-03T09:47:54.713Z,982.6
2023-07-03T09:51:56.497Z,982.6
2023-07-03T09:53:57.443Z,982.6
2023-07-03T09:55:58.932Z,982.7
2023-07-03T09:57:59.904Z,982.7
2023-07-03T10:00:01.662Z,982.7
2023-07-03T10:04:04.096Z,982.8
2023-07-03T10:08:07.604Z,982.5
2023-07-03T10:14:10.942Z,982.7
2023-07-03T10:16:11.855Z,982.8
2023-07-03T10:20:14.849Z,982.8
2023-07-03T10:24:18.003Z,982.8
2023-07-03T10:26:18.914Z,982.8
2023-07-03T10:30:21.275Z,982.7
2023-07-03T10:34:23.744Z,982.9
2023-07-03T10:36:25.210Z,982.9
2023-07-03T10:40:27.456Z,982.8
2023-07-03T10:42:28.647Z,982.8
2023-07-03T10:47:15.515Z,982.8
2023-07-03T10:49:17.298Z,982.6
2023-07-03T10:51:18.470Z,982.9
2023-07-03T10:53:19.920Z,982.9
2023-07-03T10:57:22.926Z,982.8
2023-07-03T11:01:25.589Z,983
2023-07-03T11:03:26.902Z,983
2023-07-03T11:07:28.980Z,983
2023-07-03T11:11:32.488Z,983.1
2023-07-03T11:13:33.536Z,983.1
2023-07-03T11:17:36.014Z,983
2023-07-03T11:23:40.622Z,982.9
2023-07-03T11:29:44.525Z,982.9
2023-07-03T11:39:51.688Z,983.1
2023-07-03T11:43:54.162Z,983
2023-07-03T11:45:55.870Z,983.1
2023-07-03T11:49:58.461Z,983
2023-07-03T11:56:01.988Z,982.9
2023-07-03T12:00:05.078Z,983.1
2023-07-03T12:02:06.308Z,982.9
2023-07-03T12:06:09.602Z,982.9
2023-07-03T12:10:11.756Z,982.9
2023-07-03T12:12:13.210Z,982.8
2023-07-03T12:14:15.378Z,982.9
2023-07-03T12:16:17.085Z,983
2023-07-03T12:18:18.741Z,983.2
2023-07-03T12:22:21.464Z,983
2023-07-03T12:24:22.970Z,982.8
2023-07-03T12:26:24.097Z,982.8
2023-07-03T12:28:24.951Z,982.7
2023-07-03T12:32:28.149Z,982.8
2023-07-03T12:34:29.511Z,982.8
2023-07-03T12:38:32.072Z,982.8
2023-07-03T12:42:34.373Z,982.7
2023-07-03T12:44:35.598Z,982.7
2023-07-03T12:48:38.099Z,982.7
2023-07-03T12:52:40.017Z,982.7
2023-07-03T12:54:41.553Z,982.6
2023-07-03T12:56:43.162Z,982.7
2023-07-03T13:00:46.175Z,982.6
2023-07-03T13:02:47.390Z,982.7
2023-07-03T13:04:48.852Z,982.8
2023-07-03T13:08:52.572Z,982.7
2023-07-03T13:10:53.805Z,982.6
2023-07-03T13:12:55.344Z,982.6
2023-07-03T13:14:56.362Z,982.6
2023-07-03T13:18:58.220Z,982.7
2023-07-03T13:23:00.314Z,982.7
2023-07-03T13:27:03.292Z,982.8
2023-07-03T13:31:06.293Z,982.5
2023-07-03T13:35:08.808Z,982.4
2023-07-03T13:37:10.216Z,982.5
2023-07-03T13:41:12.567Z,982.5
2023-07-03T13:43:14.300Z,982.6
2023-07-03T13:45:15.628Z,982.5
2023-07-03T13:47:17.411Z,982.6
2023-07-03T13:51:19.405Z,982.6
2023-07-03T13:53:20.932Z,982.6
2023-07-03T13:55:22.288Z,982.6
2023-07-03T13:57:23.222Z,982.5
2023-07-03T13:59:24.979Z,982.4
2023-07-03T14:03:27.144Z,982.3
2023-07-03T14:07:30.359Z,982.4
2023-07-03T14:09:31.932Z,982.4
2023-07-03T14:13:33.780Z,982.4
2023-07-03T14:15:35.446Z,982.6
2023-07-03T14:19:37.143Z,982.5
2023-07-03T14:23:40.018Z,982.5
2023-07-03T14:25:41.069Z,982.5
2023-07-03T14:29:43.056Z,982.5
2023-07-03T14:33:45.500Z,982.4
2023-07-03T14:35:46.460Z,982.4
2023-07-03T14:39:48.357Z,982.4
2023-07-03T14:41:49.269Z,982.4
2023-07-03T14:45:52.032Z,982.4
2023-07-03T14:49:55.386Z,982.4
2023-07-03T14:51:57.058Z,982.4
2023-07-03T14:53:58.150Z,982.5
2023-07-03T14:55:59.903Z,982.5
2023-07-03T15:02:02.909Z,982.4
2023-07-03T15:04:04.530Z,982.3
2023-07-03T15:06:05.545Z,982.4
2023-07-03T15:08:06.442Z,982.3
2023-07-03T15:12:08.944Z,982.4
2023-07-03T15:16:11.542Z,982.4
2023-07-03T15:18:12.972Z,982.3
2023-07-03T15:22:15.227Z,982.4
2023-07-03T15:24:16.476Z,982.2
2023-07-03T15:26:18.067Z,982.2
2023-07-03T15:28:19.228Z,982.2
2023-07-03T15:32:21.894Z,982.2
2023-07-03T15:34:22.988Z,982.2
2023-07-03T15:36:24.321Z,982.3
2023-07-03T15:38:25.280Z,982.2
2023-07-03T15:44:28.073Z,982.1
2023-07-03T15:46:29.451Z,982.2
2023-07-03T15:48:31.136Z,982.2
2023-07-03T15:50:32.531Z,982.2
2023-07-03T15:54:38.265Z,982.1
2023-07-03T15:56:36.181Z,982.1
2023-07-03T16:00:38.702Z,982.1
2023-07-03T16:04:41.946Z,982.1
2023-07-03T16:06:43.202Z,982.1
2023-07-03T16:10:45.762Z,982.1
2023-07-03T16:14:47.804Z,982.2
2023-07-03T16:16:48.700Z,982.2
2023-07-03T16:20:50.703Z,982.2
2023-07-03T16:22:51.763Z,982.2
2023-07-03T16:26:53.811Z,982.2
2023-07-03T16:30:57.105Z,982
2023-07-03T16:32:58.250Z,982.1
2023-07-03T16:37:01.243Z,982.1
2023-07-03T16:39:02.097Z,982
2023-07-03T16:43:04.880Z,982
2023-07-03T16:47:07.161Z,981.9
2023-07-03T16:49:08.368Z,981.9
2023-07-03T16:51:09.115Z,981.9
2023-07-03T16:53:10.251Z,981.9
2023-07-03T16:57:12.144Z,981.9
2023-07-03T16:59:13.655Z,982
2023-07-03T17:01:14.827Z,981.9
2023-07-03T17:05:17.668Z,981.8
2023-07-03T17:07:19.190Z,982
2023-07-03T17:09:20.927Z,981.9
2023-07-03T17:13:23.370Z,981.9
2023-07-03T17:15:24.194Z,981.8
2023-07-03T17:17:25.952Z,981.8
2023-07-03T17:19:27.282Z,981.8
2023-07-03T17:21:29.070Z,981.9
2023-07-03T17:25:31.900Z,981.9
2023-07-03T17:27:33.323Z,981.9
2023-07-03T17:30:18.620Z,981.8
2023-07-03T17:32:20.055Z,981.9
2023-07-03T17:36:22.385Z,982
2023-07-03T17:40:25.230Z,982.1
2023-07-03T17:42:26.417Z,982
2023-07-03T17:46:29.107Z,982
2023-07-03T17:50:32.123Z,981.9
2023-07-03T17:52:33.751Z,982
2023-07-03T17:56:36.514Z,982
2023-07-03T17:58:37.881Z,982
2023-07-03T18:02:40.837Z,982.1
2023-07-03T18:04:42.146Z,982
2023-07-03T18:06:43.277Z,981.9
2023-07-03T18:12:47.827Z,982
2023-07-03T18:14:49.525Z,981.9
2023-07-03T18:16:50.665Z,982
2023-07-03T18:18:52.003Z,982
2023-07-03T18:22:54.533Z,981.9
2023-07-03T18:24:55.503Z,981.9
2023-07-03T18:28:58.151Z,981.9
2023-07-03T18:33:00.922Z,981.8
2023-07-03T18:35:01.779Z,981.9
2023-07-03T18:39:04.914Z,981.9
2023-07-03T18:41:06.206Z,982
2023-07-03T18:45:08.505Z,981.9
2023-07-03T18:49:10.912Z,981.9
2023-07-03T18:51:11.912Z,981.9
2023-07-03T18:55:14.845Z,981.9
2023-07-03T18:57:16.156Z,981.9
2023-07-03T19:01:18.530Z,981.9
2023-07-03T19:05:21.601Z,982
2023-07-03T19:07:22.940Z,981.9
2023-07-03T19:11:24.818Z,981.9
2023-07-03T19:13:26.079Z,981.9
2023-07-03T19:15:27.313Z,982
2023-07-03T19:21:31.474Z,982
2023-07-03T19:23:32.930Z,982
2023-07-03T19:27:35.961Z,982
2023-07-03T19:29:37.308Z,982
2023-07-03T19:31:38.260Z,982.1
2023-07-03T19:33:39.374Z,982.1
2023-07-03T19:37:42.384Z,982.3
2023-07-03T19:39:43.265Z,982.3
2023-07-03T19:43:54.838Z,982.4
2023-07-03T19:47:48.721Z,982.6
2023-07-03T19:49:50.202Z,982.5
2023-07-03T19:53:52.171Z,982.7
2023-07-03T19:55:54.033Z,982.7
2023-07-03T19:59:56.616Z,982.8
2023-07-03T20:03:58.777Z,982.7
2023-07-03T20:06:00.036Z,982.6
2023-07-03T20:08:01.384Z,982.4
2023-07-03T20:14:05.644Z,982.5
2023-07-03T20:16:07.336Z,982.5
2023-07-03T20:20:10.658Z,982.6
2023-07-03T20:22:11.969Z,982.6
2023-07-03T20:26:14.337Z,982.6
2023-07-03T20:30:16.247Z,982.5
2023-07-03T20:32:17.120Z,982.5
2023-07-03T20:36:19.905Z,982.6
2023-07-03T20:38:21.361Z,982.6
2023-07-03T20:42:24.009Z,982.6
2023-07-03T20:46:25.981Z,982.7
2023-07-03T20:48:27.230Z,982.6
2023-07-03T20:52:30.042Z,982.6
2023-07-03T20:56:32.329Z,982.6
2023-07-03T20:58:33.821Z,982.6
2023-07-03T21:02:36.010Z,982.7
2023-07-03T21:04:37.795Z,982.6
2023-07-03T21:06:39.289Z,982.7
2023-07-03T21:08:40.739Z,982.7
2023-07-03T21:12:43.137Z,982.7
2023-07-03T21:14:44.481Z,982.7
2023-07-03T21:16:45.498Z,982.7
2023-07-03T21:18:47.336Z,982.6
2023-07-03T21:20:48.790Z,982.8
2023-07-03T21:24:51.597Z,982.8
2023-07-03T21:28:53.965Z,982.7
2023-07-03T21:30:55.191Z,982.6
2023-07-03T21:34:58.568Z,982.6
2023-07-03T21:41:02.008Z,982.6
2023-07-03T21:45:04.702Z,982.6
2023-07-03T21:47:06.319Z,982.7
2023-07-03T21:51:08.752Z,982.7
2023-07-03T21:55:11.168Z,982.8
2023-07-03T21:57:12.927Z,982.8
2023-07-03T22:01:15.480Z,982.8
2023-07-03T22:03:16.675Z,982.8
2023-07-03T22:07:19.572Z,982.7
2023-07-03T22:11:22.705Z,982.8
2023-07-03T22:13:23.712Z,982.7
2023-07-03T22:17:26.974Z,982.7
2023-07-03T22:19:28.211Z,982.7
2023-07-03T22:23:32.603Z,982.7
2023-07-03T22:27:34.065Z,982.8
2023-07-03T22:29:35.136Z,982.7
2023-07-03T22:33:37.703Z,982.6
2023-07-03T22:37:39.925Z,982.6
2023-07-03T22:39:41.514Z,982.7
2023-07-03T22:43:44.101Z,982.7
2023-07-03T22:45:45.416Z,982.6
2023-07-03T22:49:48.076Z,982.8
2023-07-03T22:53:51.168Z,982.6
2023-07-03T22:55:52.842Z,982.7
2023-07-03T22:59:55.095Z,982.6
2023-07-03T23:01:56.663Z,982.6
2023-07-03T23:06:01.057Z,982.6
2023-07-03T23:10:02.140Z,982.6
2023-07-03T23:12:03.279Z,982.7
2023-07-03T23:18:06.945Z,982.6
2023-07-03T23:22:10.301Z,982.5
2023-07-03T23:26:13.657Z,982.5
2023-07-03T23:28:14.756Z,982.6
2023-07-03T23:32:17.261Z,982.7
2023-07-03T23:34:19.024Z,982.7
2023-07-03T23:38:21.647Z,982.7
2023-07-03T23:42:25.246Z,982.6
2023-07-03T23:44:26.912Z,982.8
2023-07-03T23:48:29.008Z,982.7
2023-07-03T23:50:30.881Z,982.7
2023-07-03T23:54:33.904Z,982.8
2023-07-03T23:58:37.006Z,982.8
